Time;durP1;ratioP1;P1;durP2;ratioP2;P2;SDS_P1;SDS_P2;PMS_P1;PMS_P2;Temp;Humidity;BMP_temperature;BMP_pressure;BME280_temperature;BME280_humidity;BME280_pressure;Samples;Min_cycle;Max_cycle;Signal;HPM_P1;HPM_P2
2021/11/29 00:01:46;;;;;;;2.90;1.90;;;;;;;;;;5061520;28;20021;-78
2021/11/29 00:04:12;;;;;;;3.10;1.63;;;;;;;;;;5062925;28;20048;-81
2021/11/29 00:06:37;;;;;;;3.78;2.20;;;;;;;;;;5044958;28;20029;-78
2021/11/29 00:09:03;;;;;;;3.28;2.05;;;;;;;;;;5045308;28;20017;-79
2021/11/29 00:11:29;;;;;;;3.63;2.08;;;;;;;;;;5062852;28;20051;-78
2021/11/29 00:13:54;;;;;;;2.65;1.80;;;;;;;;;;5063120;28;20048;-79
2021/11/29 00:16:20;;;;;;;3.50;1.77;;;;;;;;;;5063105;28;20032;-83
2021/11/29 00:18:45;;;;;;;4.38;2.10;;;;;;;;;;5045151;28;20096;-79
2021/11/29 00:21:13;;;;;;;3.25;1.70;;;;;;;;;;5044369;28;20036;-81
2021/11/29 00:23:38;;;;;;;3.00;1.90;;;;;;;;;;5062220;28;20685;-84
2021/11/29 00:26:04;;;;;;;2.67;1.73;;;;;;;;;;5043949;28;20041;-79
2021/11/29 00:28:30;;;;;;;2.67;1.60;;;;;;;;;;5044736;28;20132;-79
2021/11/29 00:30:55;;;;;;;3.08;1.80;;;;;;;;;;5045793;28;20667;-81
2021/11/29 00:33:21;;;;;;;3.15;1.98;;;;;;;;;;5063718;28;20033;-85
2021/11/29 00:35:46;;;;;;;2.33;1.60;;;;;;;;;;5063033;28;20031;-78
2021/11/29 00:38:13;;;;;;;4.18;2.15;;;;;;;;;;5045315;28;20021;-79
2021/11/29 00:40:40;;;;;;;6.40;2.50;;;;;;;;;;5062699;28;20100;-81
2021/11/29 00:43:06;;;;;;;3.80;2.20;;;;;;;;;;5063647;28;20021;-77
2021/11/29 00:45:32;;;;;;;4.35;2.20;;;;;;;;;;5063134;28;20116;-80
2021/11/29 00:47:57;;;;;;;3.95;2.17;;;;;;;;;;5044810;28;20118;-81
2021/11/29 00:50:23;;;;;;;3.13;2.08;;;;;;;;;;5062568;28;20025;-78
2021/11/29 00:52:49;;;;;;;3.88;1.88;;;;;;;;;;5044737;28;20036;-79
2021/11/29 00:55:17;;;;;;;3.25;1.90;;;;;;;;;;5062604;28;20033;-81
2021/11/29 00:57:43;;;;;;;3.28;1.90;;;;;;;;;;5044908;28;20021;-81
2021/11/29 01:00:16;;;;;;;2.90;1.90;;;;;;;;;;5062489;28;20557;-80
2021/11/29 01:02:42;;;;;;;3.22;2.00;;;;;;;;;;5062810;28;20505;-80
2021/11/29 01:05:08;;;;;;;3.17;1.98;;;;;;;;;;5044940;28;20063;-80
2021/11/29 01:07:33;;;;;;;4.05;1.95;;;;;;;;;;5063189;28;20029;-80
2021/11/29 01:09:59;;;;;;;3.60;2.22;;;;;;;;;;5062831;28;20040;-80
2021/11/29 01:12:24;;;;;;;3.83;1.70;;;;;;;;;;5044789;28;20028;-77
2021/11/29 01:14:50;;;;;;;2.88;1.88;;;;;;;;;;5044819;28;20139;-77
2021/11/29 01:17:15;;;;;;;3.25;1.88;;;;;;;;;;5044559;28;20036;-78
2021/11/29 01:19:41;;;;;;;5.93;2.08;;;;;;;;;;5063157;28;20029;-80
2021/11/29 01:22:07;;;;;;;3.63;2.08;;;;;;;;;;5062582;28;20029;-81
2021/11/29 01:24:32;;;;;;;3.35;1.80;;;;;;;;;;5063153;28;20048;-77
2021/11/29 01:26:58;;;;;;;4.20;2.00;;;;;;;;;;5062847;28;20048;-77
2021/11/29 01:29:23;;;;;;;4.30;2.17;;;;;;;;;;5062599;28;20045;-80
2021/11/29 01:31:49;;;;;;;3.70;2.22;;;;;;;;;;5063008;28;20025;-79
2021/11/29 01:34:15;;;;;;;5.53;2.50;;;;;;;;;;5044671;28;20025;-79
2021/11/29 01:36:41;;;;;;;4.30;2.38;;;;;;;;;;5062473;28;20033;-79
2021/11/29 01:39:07;;;;;;;5.28;2.40;;;;;;;;;;5062590;28;20025;-79
2021/11/29 01:41:32;;;;;;;3.63;2.20;;;;;;;;;;5044360;28;20044;-78
2021/11/29 01:43:57;;;;;;;4.50;2.17;;;;;;;;;;5062347;28;20032;-78
2021/11/29 01:46:23;;;;;;;3.58;2.13;;;;;;;;;;5061759;28;20094;-78
2021/11/29 01:48:50;;;;;;;3.22;1.95;;;;;;;;;;5061746;28;20041;-79
2021/11/29 01:51:15;;;;;;;4.38;2.30;;;;;;;;;;5060607;28;20022;-82
2021/11/29 01:53:41;;;;;;;4.25;2.08;;;;;;;;;;5043695;28;20104;-78
2021/11/29 01:56:06;;;;;;;4.88;2.35;;;;;;;;;;5061002;28;20068;-80
2021/11/29 01:58:35;;;;;;;4.13;1.95;;;;;;;;;;5061145;28;20029;-78
2021/11/29 02:01:05;;;;;;;5.25;2.40;;;;;;;;;;5061217;28;20025;-81
2021/11/29 02:03:31;;;;;;;4.85;2.28;;;;;;;;;;5062250;28;20024;-78
2021/11/29 02:05:58;;;;;;;5.30;2.17;;;;;;;;;;5061981;28;20032;-80
2021/11/29 02:08:24;;;;;;;6.22;2.55;;;;;;;;;;5062152;28;20096;-79
2021/11/29 02:10:50;;;;;;;2.97;1.95;;;;;;;;;;5044361;28;20025;-80
2021/11/29 02:13:17;;;;;;;3.38;2.00;;;;;;;;;;5043994;28;20074;-81
2021/11/29 02:15:43;;;;;;;3.95;2.05;;;;;;;;;;5061795;28;20532;-81
2021/11/29 02:18:08;;;;;;;4.55;2.55;;;;;;;;;;5061919;28;20025;-80
2021/11/29 02:20:35;;;;;;;2.95;1.80;;;;;;;;;;5061507;28;20036;-78
2021/11/29 02:23:02;;;;;;;4.20;2.17;;;;;;;;;;5061891;28;20040;-79
2021/11/29 02:25:27;;;;;;;4.28;2.20;;;;;;;;;;5043521;28;20025;-81
2021/11/29 02:27:54;;;;;;;4.25;2.20;;;;;;;;;;5061505;28;20064;-81
2021/11/29 02:30:22;;;;;;;2.45;1.50;;;;;;;;;;5061437;28;20089;-81
2021/11/29 02:32:48;;;;;;;3.13;2.00;;;;;;;;;;5043978;28;20033;-79
2021/11/29 02:35:14;;;;;;;3.00;1.80;;;;;;;;;;5061311;28;20025;-78
2021/11/29 02:37:40;;;;;;;3.70;1.98;;;;;;;;;;5061649;28;20032;-77
2021/11/29 02:40:06;;;;;;;2.97;1.70;;;;;;;;;;5043584;28;20116;-80
2021/11/29 02:42:32;;;;;;;3.67;2.00;;;;;;;;;;5043362;28;20245;-78
2021/11/29 02:44:58;;;;;;;3.80;1.40;;;;;;;;;;5043392;28;20025;-81
2021/11/29 02:47:24;;;;;;;2.83;1.70;;;;;;;;;;5060590;28;20033;-78
2021/11/29 02:49:49;;;;;;;4.30;1.85;;;;;;;;;;5060380;28;20040;-78
2021/11/29 02:52:17;;;;;;;3.13;1.67;;;;;;;;;;5060473;28;20032;-79
2021/11/29 02:54:44;;;;;;;2.83;1.50;;;;;;;;;;5060758;28;20525;-77
2021/11/29 02:57:16;;;;;;;2.70;1.58;;;;;;;;;;5042504;28;20119;-78
2021/11/29 02:59:42;;;;;;;2.47;1.52;;;;;;;;;;5060576;28;20080;-80
2021/11/29 03:02:14;;;;;;;3.30;1.50;;;;;;;;;;5042724;28;20037;-79
2021/11/29 03:04:41;;;;;;;3.67;1.60;;;;;;;;;;5047169;28;20058;-80
2021/11/29 03:07:08;;;;;;;2.50;1.40;;;;;;;;;;5047625;28;20040;-78
2021/11/29 03:09:34;;;;;;;2.72;1.33;;;;;;;;;;5065542;28;20044;-78
2021/11/29 03:12:01;;;;;;;1.80;1.30;;;;;;;;;;5047294;28;20065;-77
2021/11/29 03:14:26;;;;;;;3.58;1.45;;;;;;;;;;5065543;28;20037;-78
2021/11/29 03:16:54;;;;;;;3.40;1.60;;;;;;;;;;5064987;28;20025;-80
2021/11/29 03:19:20;;;;;;;2.00;1.40;;;;;;;;;;5064721;28;20101;-77
2021/11/29 03:21:45;;;;;;;2.58;1.38;;;;;;;;;;5046520;28;20044;-81
2021/11/29 03:24:11;;;;;;;3.05;1.50;;;;;;;;;;5046497;28;20033;-81
2021/11/29 03:26:38;;;;;;;2.90;1.50;;;;;;;;;;5046152;28;20029;-78
2021/11/29 03:29:07;;;;;;;2.50;1.52;;;;;;;;;;5032608;28;20042;-79
2021/11/29 03:31:34;;;;;;;1.45;0.88;;;;;;;;;;5026261;28;20541;-79
2021/11/29 03:34:01;;;;;;;2.28;1.40;;;;;;;;;;5045274;28;20076;-82
2021/11/29 03:36:29;;;;;;;2.65;1.40;;;;;;;;;;5026785;28;20029;-79
2021/11/29 03:38:56;;;;;;;3.42;1.73;;;;;;;;;;5027049;28;20430;-77
2021/11/29 03:41:22;;;;;;;2.33;1.40;;;;;;;;;;5027043;28;20668;-80
2021/11/29 03:43:48;;;;;;;2.75;1.55;;;;;;;;;;5044982;28;20048;-79
2021/11/29 03:46:13;;;;;;;2.58;1.50;;;;;;;;;;5026941;28;20029;-77
2021/11/29 03:48:39;;;;;;;3.03;1.60;;;;;;;;;;5044827;28;20032;-78
2021/11/29 03:51:05;;;;;;;2.88;1.65;;;;;;;;;;5026317;28;20029;-78
2021/11/29 03:53:31;;;;;;;2.63;1.30;;;;;;;;;;5044743;28;20026;-80
2021/11/29 03:55:56;;;;;;;2.65;1.42;;;;;;;;;;5044802;28;20022;-80
2021/11/29 03:58:22;;;;;;;1.98;1.27;;;;;;;;;;5044452;28;20037;-81
2021/11/29 04:00:48;;;;;;;2.90;1.55;;;;;;;;;;5044427;28;20124;-79
2021/11/29 04:03:14;;;;;;;2.92;1.75;;;;;;;;;;5043900;28;20604;-80
2021/11/29 04:05:39;;;;;;;2.75;1.73;;;;;;;;;;5043646;28;20060;-79
2021/11/29 04:08:05;;;;;;;2.40;1.52;;;;;;;;;;5026040;28;20025;-80
2021/11/29 04:10:30;;;;;;;3.65;1.77;;;;;;;;;;5043598;28;20029;-79
2021/11/29 04:12:56;;;;;;;2.78;1.65;;;;;;;;;;5026036;28;20032;-80
2021/11/29 04:15:22;;;;;;;3.55;1.80;;;;;;;;;;5024364;28;20030;-78
2021/11/29 04:17:47;;;;;;;3.55;2.15;;;;;;;;;;5026561;28;20025;-79
2021/11/29 04:20:15;;;;;;;3.25;1.90;;;;;;;;;;5025815;28;20033;-81
2021/11/29 04:22:44;;;;;;;4.32;2.00;;;;;;;;;;5044062;28;20029;-78
2021/11/29 04:25:11;;;;;;;3.85;1.98;;;;;;;;;;5044004;28;20026;-79
2021/11/29 04:27:37;;;;;;;3.42;1.85;;;;;;;;;;5027790;28;20044;-78
2021/11/29 04:30:11;;;;;;;3.42;1.92;;;;;;;;;;5063737;28;20036;-80
2021/11/29 04:32:37;;;;;;;3.80;2.05;;;;;;;;;;5064214;28;20021;-79
2021/11/29 04:35:03;;;;;;;3.63;2.17;;;;;;;;;;5063639;28;20074;-79
2021/11/29 04:37:28;;;;;;;3.33;2.03;;;;;;;;;;5063972;28;20037;-78
2021/11/29 04:39:54;;;;;;;3.20;1.75;;;;;;;;;;5046003;28;20032;-78
2021/11/29 04:42:19;;;;;;;3.22;1.85;;;;;;;;;;5063823;28;20025;-80
2021/11/29 04:44:44;;;;;;;2.80;1.67;;;;;;;;;;5063655;28;20037;-80
2021/11/29 04:47:10;;;;;;;3.80;1.60;;;;;;;;;;5045298;28;20246;-78
2021/11/29 04:49:35;;;;;;;2.88;1.90;;;;;;;;;;5045491;28;20037;-77
2021/11/29 04:52:01;;;;;;;3.03;1.75;;;;;;;;;;5063677;28;20025;-79
2021/11/29 04:54:27;;;;;;;3.53;1.90;;;;;;;;;;5045580;28;20029;-77
2021/11/29 04:56:52;;;;;;;2.50;1.83;;;;;;;;;;5045383;28;20035;-78
2021/11/29 04:59:18;;;;;;;3.90;1.80;;;;;;;;;;5045588;28;20032;-80
2021/11/29 05:01:43;;;;;;;5.00;1.75;;;;;;;;;;5045444;28;20101;-79
2021/11/29 05:04:09;;;;;;;2.90;1.80;;;;;;;;;;5045363;28;20025;-78
2021/11/29 05:06:37;;;;;;;3.30;1.48;;;;;;;;;;5045238;28;20044;-80
2021/11/29 05:09:05;;;;;;;2.63;1.65;;;;;;;;;;5063388;28;20021;-79
2021/11/29 05:11:31;;;;;;;1.90;1.40;;;;;;;;;;5063003;28;20491;-81
2021/11/29 05:13:56;;;;;;;2.60;1.40;;;;;;;;;;5045594;28;20081;-83
2021/11/29 05:16:22;;;;;;;2.67;1.52;;;;;;;;;;5045205;28;20096;-79
2021/11/29 05:18:47;;;;;;;2.75;1.60;;;;;;;;;;5062068;28;20409;-83
2021/11/29 05:21:13;;;;;;;3.05;1.48;;;;;;;;;;5062203;28;20033;-80
2021/11/29 05:23:38;;;;;;;3.92;1.50;;;;;;;;;;5062809;28;20059;-81
2021/11/29 05:26:04;;;;;;;2.67;1.52;;;;;;;;;;5043824;28;20036;-80
2021/11/29 05:28:29;;;;;;;2.75;1.50;;;;;;;;;;5043822;28;20049;-80
2021/11/29 05:30:55;;;;;;;4.60;1.98;;;;;;;;;;5061697;28;20040;-80
2021/11/29 05:33:20;;;;;;;2.53;1.52;;;;;;;;;;5061370;28;20056;-78
2021/11/29 05:35:46;;;;;;;2.95;1.63;;;;;;;;;;5044371;28;20117;-80
2021/11/29 05:38:11;;;;;;;2.95;1.73;;;;;;;;;;5044688;28;20066;-80
2021/11/29 05:40:37;;;;;;;3.28;1.77;;;;;;;;;;5062099;28;20032;-78
2021/11/29 05:43:02;;;;;;;5.65;1.92;;;;;;;;;;5062477;28;20043;-80
2021/11/29 05:45:28;;;;;;;5.70;1.80;;;;;;;;;;5044156;28;20047;-79
2021/11/29 05:47:54;;;;;;;3.75;2.00;;;;;;;;;;5044512;28;20552;-79
2021/11/29 05:50:19;;;;;;;4.15;1.75;;;;;;;;;;5062407;28;20067;-78
2021/11/29 05:52:45;;;;;;;2.67;1.60;;;;;;;;;;5062025;28;20024;-78
2021/11/29 05:55:12;;;;;;;2.92;1.50;;;;;;;;;;5061951;28;20024;-79
2021/11/29 05:57:39;;;;;;;3.17;1.63;;;;;;;;;;5043704;28;20583;-79
2021/11/29 06:00:08;;;;;;;3.17;1.60;;;;;;;;;;5043467;28;20160;-78
2021/11/29 06:02:33;;;;;;;2.88;1.58;;;;;;;;;;5062607;28;20027;-80
2021/11/29 06:04:58;;;;;;;3.45;1.75;;;;;;;;;;5061969;28;20400;-78
2021/11/29 06:07:24;;;;;;;3.47;1.77;;;;;;;;;;5043894;28;20527;-77
2021/11/29 06:09:49;;;;;;;2.78;1.60;;;;;;;;;;5062361;28;20099;-78
2021/11/29 06:12:15;;;;;;;2.75;1.60;;;;;;;;;;5061773;28;20087;-79
2021/11/29 06:14:40;;;;;;;3.10;1.90;;;;;;;;;;5061960;28;20040;-78
2021/11/29 06:17:06;;;;;;;3.80;2.28;;;;;;;;;;5061526;28;20040;-76
2021/11/29 06:19:31;;;;;;;2.90;2.00;;;;;;;;;;5060986;28;20025;-79
2021/11/29 06:21:57;;;;;;;4.55;1.80;;;;;;;;;;5060673;28;20032;-78
2021/11/29 06:24:22;;;;;;;2.78;1.80;;;;;;;;;;5061016;28;20033;-77
2021/11/29 06:26:47;;;;;;;3.58;2.10;;;;;;;;;;5042394;28;20253;-78
2021/11/29 06:29:13;;;;;;;3.72;2.17;;;;;;;;;;5060903;28;20045;-78
2021/11/29 06:31:38;;;;;;;3.40;2.05;;;;;;;;;;5044927;28;20033;-77
2021/11/29 06:34:04;;;;;;;3.63;2.13;;;;;;;;;;5063323;28;20119;-78
2021/11/29 06:36:30;;;;;;;3.75;2.10;;;;;;;;;;5044712;28;20358;-79
2021/11/29 06:38:57;;;;;;;4.55;2.28;;;;;;;;;;5045037;28;20029;-79
2021/11/29 06:41:24;;;;;;;4.93;1.83;;;;;;;;;;5045656;28;20059;-77
2021/11/29 06:43:49;;;;;;;4.07;2.40;;;;;;;;;;5045904;28;20078;-78
2021/11/29 06:46:15;;;;;;;4.35;2.67;;;;;;;;;;5045321;28;20120;-81
2021/11/29 06:48:41;;;;;;;3.35;2.47;;;;;;;;;;5045461;28;20025;-78
2021/11/29 06:51:07;;;;;;;4.32;2.40;;;;;;;;;;5063237;28;20054;-79
2021/11/29 06:53:33;;;;;;;5.63;2.45;;;;;;;;;;5063262;28;20253;-77
2021/11/29 06:56:00;;;;;;;4.45;2.10;;;;;;;;;;5063533;28;20028;-80
2021/11/29 06:58:26;;;;;;;3.47;2.10;;;;;;;;;;5045451;28;20028;-76
2021/11/29 07:00:52;;;;;;;4.38;2.00;;;;;;;;;;5063239;28;20025;-78
2021/11/29 07:03:17;;;;;;;3.35;2.10;;;;;;;;;;5045139;28;20091;-79
2021/11/29 07:05:43;;;;;;;3.00;1.70;;;;;;;;;;5062412;28;20028;-79
2021/11/29 07:08:09;;;;;;;4.43;1.92;;;;;;;;;;5044871;28;20037;-76
2021/11/29 07:10:40;;;;;;;4.03;2.10;;;;;;;;;;5044640;28;20393;-78
2021/11/29 07:13:06;;;;;;;5.35;2.28;;;;;;;;;;5044823;28;20116;-77
2021/11/29 07:15:33;;;;;;;3.90;1.70;;;;;;;;;;5062417;28;20037;-77
2021/11/29 07:17:58;;;;;;;3.25;1.80;;;;;;;;;;5062861;28;20128;-77
2021/11/29 07:20:24;;;;;;;3.70;1.65;;;;;;;;;;5062995;28;20466;-77
2021/11/29 07:22:49;;;;;;;3.42;1.42;;;;;;;;;;5063154;28;20029;-77
2021/11/29 07:25:15;;;;;;;3.42;1.77;;;;;;;;;;5044880;28;20036;-77
2021/11/29 07:27:40;;;;;;;3.13;1.70;;;;;;;;;;5063054;28;20318;-78
2021/11/29 07:30:08;;;;;;;2.28;1.20;;;;;;;;;;5044762;28;20078;-78
2021/11/29 07:32:34;;;;;;;4.35;1.90;;;;;;;;;;5063235;28;20037;-79
2021/11/29 07:34:59;;;;;;;3.42;1.48;;;;;;;;;;5063069;28;20033;-79
2021/11/29 07:37:26;;;;;;;3.00;1.73;;;;;;;;;;5063035;28;20045;-78
2021/11/29 07:39:52;;;;;;;2.88;1.58;;;;;;;;;;5062442;28;20025;-77
2021/11/29 07:42:19;;;;;;;2.78;1.30;;;;;;;;;;5044998;28;20092;-79
2021/11/29 07:44:45;;;;;;;2.58;1.50;;;;;;;;;;5043272;28;20029;-79
2021/11/29 07:47:10;;;;;;;2.63;1.60;;;;;;;;;;5061760;28;20380;-78
2021/11/29 07:49:36;;;;;;;2.28;1.40;;;;;;;;;;5062205;28;20056;-81
2021/11/29 07:52:02;;;;;;;2.78;1.60;;;;;;;;;;5065698;28;20372;-77
2021/11/29 07:54:27;;;;;;;3.25;1.55;;;;;;;;;;5066394;28;20071;-77
2021/11/29 07:56:53;;;;;;;3.78;1.58;;;;;;;;;;5066765;28;20496;-78
2021/11/29 07:59:19;;;;;;;3.90;1.80;;;;;;;;;;5066875;28;20028;-78
2021/11/29 08:01:44;;;;;;;2.20;1.50;;;;;;;;;;5048768;28;20612;-79
2021/11/29 08:04:10;;;;;;;2.65;1.35;;;;;;;;;;5067078;28;20029;-78
2021/11/29 08:06:36;;;;;;;1.88;1.15;;;;;;;;;;5048529;28;20037;-78
2021/11/29 08:09:01;;;;;;;2.92;1.30;;;;;;;;;;5066138;28;20028;-78
2021/11/29 08:11:27;;;;;;;2.78;1.45;;;;;;;;;;5048247;28;20093;-78
2021/11/29 08:13:52;;;;;;;2.83;1.30;;;;;;;;;;5048535;28;20025;-78
2021/11/29 08:16:18;;;;;;;2.03;1.20;;;;;;;;;;5066392;28;20029;-77
2021/11/29 08:18:43;;;;;;;1.80;1.20;;;;;;;;;;5048392;28;20092;-79
2021/11/29 08:21:09;;;;;;;2.33;1.50;;;;;;;;;;5047140;28;20040;-77
2021/11/29 08:23:34;;;;;;;1.60;1.08;;;;;;;;;;5066171;28;20029;-77
2021/11/29 08:26:00;;;;;;;2.80;1.17;;;;;;;;;;5065603;28;20032;-78
2021/11/29 08:28:27;;;;;;;2.15;1.25;;;;;;;;;;5047146;28;20045;-76
2021/11/29 08:30:52;;;;;;;2.08;1.17;;;;;;;;;;5065606;28;20045;-81
2021/11/29 08:33:18;;;;;;;2.85;1.38;;;;;;;;;;5047918;28;20037;-77
2021/11/29 08:35:46;;;;;;;3.60;1.50;;;;;;;;;;5047536;28;20663;-78
2021/11/29 08:38:13;;;;;;;1.80;1.00;;;;;;;;;;5047760;28;20040;-79
2021/11/29 08:40:40;;;;;;;2.10;1.42;;;;;;;;;;5065940;28;20028;-78
2021/11/29 08:43:10;;;;;;;1.40;1.10;;;;;;;;;;5065890;28;20087;-79
2021/11/29 08:45:37;;;;;;;1.90;1.30;;;;;;;;;;5065699;28;20089;-78
2021/11/29 08:48:07;;;;;;;3.00;1.50;;;;;;;;;;5065951;28;20051;-80
2021/11/29 08:50:35;;;;;;;2.65;1.38;;;;;;;;;;5065660;28;20429;-77
2021/11/29 08:53:04;;;;;;;2.78;1.23;;;;;;;;;;5065762;28;20029;-77
2021/11/29 08:55:30;;;;;;;2.25;1.00;;;;;;;;;;5047630;28;20356;-80
2021/11/29 08:57:56;;;;;;;1.10;0.90;;;;;;;;;;5047846;28;20032;-81
2021/11/29 09:00:21;;;;;;;2.75;1.13;;;;;;;;;;5047472;28;20470;-78
2021/11/29 09:02:47;;;;;;;2.20;1.40;;;;;;;;;;5065748;28;20025;-77
2021/11/29 09:05:14;;;;;;;2.45;1.10;;;;;;;;;;5065339;28;20051;-78
2021/11/29 09:07:40;;;;;;;1.95;1.05;;;;;;;;;;5064999;28;20036;-77
2021/11/29 09:10:08;;;;;;;2.33;1.33;;;;;;;;;;5064732;28;20033;-79
2021/11/29 09:12:35;;;;;;;1.85;1.23;;;;;;;;;;5047070;28;20021;-78
2021/11/29 09:15:01;;;;;;;2.45;1.20;;;;;;;;;;5064051;28;20029;-81
2021/11/29 09:17:27;;;;;;;2.13;1.10;;;;;;;;;;5046075;28;20033;-80
2021/11/29 09:19:53;;;;;;;2.13;1.30;;;;;;;;;;5046389;28;20033;-79
2021/11/29 09:22:19;;;;;;;1.15;0.90;;;;;;;;;;5046773;28;20119;-77
2021/11/29 09:24:44;;;;;;;2.00;1.10;;;;;;;;;;5046594;28;20474;-78
2021/11/29 09:27:10;;;;;;;2.35;1.38;;;;;;;;;;5046388;28;20021;-81
2021/11/29 09:29:36;;;;;;;1.73;1.10;;;;;;;;;;5046114;28;20146;-84
2021/11/29 09:32:04;;;;;;;2.10;1.00;;;;;;;;;;5064310;28;20036;-79
2021/11/29 09:34:30;;;;;;;2.20;1.30;;;;;;;;;;5046427;28;20025;-80
2021/11/29 09:36:56;;;;;;;2.85;1.10;;;;;;;;;;5064222;28;20091;-80
2021/11/29 09:39:21;;;;;;;2.38;0.90;;;;;;;;;;5064113;28;20517;-81
2021/11/29 09:41:47;;;;;;;1.92;0.90;;;;;;;;;;5064157;28;20124;-81
2021/11/29 09:44:12;;;;;;;1.42;1.00;;;;;;;;;;5064551;28;20036;-82
2021/11/29 09:46:38;;;;;;;1.98;0.93;;;;;;;;;;5063996;28;20025;-79
2021/11/29 09:49:03;;;;;;;1.98;1.00;;;;;;;;;;5064568;28;20021;-80
2021/11/29 09:51:34;;;;;;;1.58;1.00;;;;;;;;;;5046487;28;20064;-80
2021/11/29 09:54:01;;;;;;;1.50;1.15;;;;;;;;;;5064788;28;20017;-83
2021/11/29 09:56:27;;;;;;;2.30;1.45;;;;;;;;;;5064363;28;20071;-81
2021/11/29 09:58:52;;;;;;;2.30;1.15;;;;;;;;;;5046730;28;20088;-81
2021/11/29 10:01:18;;;;;;;2.45;1.20;;;;;;;;;;5064140;28;20029;-78
2021/11/29 10:03:44;;;;;;;1.67;0.90;;;;;;;;;;5064922;28;20043;-82
2021/11/29 10:06:09;;;;;;;1.80;1.00;;;;;;;;;;5063901;28;20048;-81
2021/11/29 10:08:38;;;;;;;1.33;1.10;;;;;;;;;;5046443;28;20044;-77
2021/11/29 10:11:11;;;;;;;2.33;1.10;;;;;;;;;;5064042;28;20028;-82
2021/11/29 10:13:59;;;;;;;2.25;1.20;;;;;;;;;;5063559;28;20032;-81
2021/11/29 10:16:58;;;;;;;1.50;1.20;;;;;;;;;;5046010;28;20123;-81
2021/11/29 10:19:23;;;;;;;2.63;1.20;;;;;;;;;;5003325;28;20045;-79
2021/11/29 10:21:49;;;;;;;2.38;1.10;;;;;;;;;;5063747;28;20075;-79
2021/11/29 10:24:18;;;;;;;5.10;1.27;;;;;;;;;;5064181;28;20032;-79
2021/11/29 10:26:52;;;;;;;1.33;0.90;;;;;;;;;;5063538;28;20066;-80
2021/11/29 10:29:18;;;;;;;2.00;1.13;;;;;;;;;;5063639;28;20053;-78
2021/11/29 10:31:47;;;;;;;2.10;1.08;;;;;;;;;;5063789;28;20123;-80
2021/11/29 10:34:17;;;;;;;3.25;1.17;;;;;;;;;;5064032;28;20051;-82
2021/11/29 10:36:47;;;;;;;4.05;1.33;;;;;;;;;;5063722;28;20477;-84
2021/11/29 10:39:21;;;;;;;4.07;1.15;;;;;;;;;;5063926;28;20032;-81
2021/11/29 10:41:54;;;;;;;2.40;1.30;;;;;;;;;;5063616;28;20425;-80
2021/11/29 10:44:23;;;;;;;2.40;1.27;;;;;;;;;;5063789;28;20114;-78
2021/11/29 10:46:52;;;;;;;1.95;1.15;;;;;;;;;;5045585;28;20025;-81
2021/11/29 10:49:23;;;;;;;2.30;1.20;;;;;;;;;;5063824;28;20033;-80
2021/11/29 10:51:51;;;;;;;3.95;1.27;;;;;;;;;;5045578;28;20032;-81
2021/11/29 10:54:20;;;;;;;1.83;1.27;;;;;;;;;;5063474;28;20035;-81
2021/11/29 10:56:46;;;;;;;2.78;1.10;;;;;;;;;;5063343;28;20040;-82
2021/11/29 10:59:16;;;;;;;2.13;1.13;;;;;;;;;;5044774;28;20116;-80
2021/11/29 11:01:47;;;;;;;2.38;1.17;;;;;;;;;;5063064;28;20036;-83
2021/11/29 11:04:15;;;;;;;1.98;1.20;;;;;;;;;;5045385;28;20051;-82
2021/11/29 11:06:45;;;;;;;1.77;1.05;;;;;;;;;;5063106;28;20029;-80
2021/11/29 11:09:16;;;;;;;2.63;1.35;;;;;;;;;;5045443;28;20045;-82
2021/11/29 11:11:46;;;;;;;2.00;1.20;;;;;;;;;;5063480;28;20021;-80
2021/11/29 11:14:19;;;;;;;2.55;0.93;;;;;;;;;;5063368;28;20036;-83
2021/11/29 11:16:49;;;;;;;1.77;1.13;;;;;;;;;;5063157;28;20037;-81
2021/11/29 11:19:53;;;;;;;2.88;1.30;;;;;;;;;;5045276;28;20045;-79
2021/11/29 11:22:24;;;;;;;2.15;1.20;;;;;;;;;;5059270;28;20066;-79
2021/11/29 11:24:56;;;;;;;2.47;1.35;;;;;;;;;;5047678;28;20033;-80
2021/11/29 11:27:24;;;;;;;1.98;1.10;;;;;;;;;;5067092;28;20134;-81
2021/11/29 11:29:49;;;;;;;2.05;1.30;;;;;;;;;;5066976;28;20049;-79
2021/11/29 11:32:18;;;;;;;4.07;1.40;;;;;;;;;;5066914;28;20043;-80
2021/11/29 11:34:47;;;;;;;1.33;1.05;;;;;;;;;;5048502;28;20496;-80
2021/11/29 11:37:14;;;;;;;1.70;1.15;;;;;;;;;;5066298;28;20071;-80
2021/11/29 11:39:40;;;;;;;2.72;1.15;;;;;;;;;;5066308;28;20040;-80
2021/11/29 11:42:09;;;;;;;3.22;1.40;;;;;;;;;;5048123;28;20109;-81
2021/11/29 11:44:38;;;;;;;2.45;1.27;;;;;;;;;;5066196;28;20021;-81
2021/11/29 11:47:05;;;;;;;1.92;1.23;;;;;;;;;;5066041;28;20033;-81
2021/11/29 11:49:35;;;;;;;1.63;1.20;;;;;;;;;;5066347;28;20036;-79
2021/11/29 11:52:00;;;;;;;2.38;1.35;;;;;;;;;;5065957;28;20110;-80
2021/11/29 11:54:26;;;;;;;2.38;1.33;;;;;;;;;;5066269;28;20025;-80
2021/11/29 11:56:51;;;;;;;1.88;1.30;;;;;;;;;;5066011;28;20033;-78
2021/11/29 11:59:18;;;;;;;1.55;1.20;;;;;;;;;;5066339;28;20032;-80
2021/11/29 12:01:46;;;;;;;2.60;1.15;;;;;;;;;;5048125;28;20231;-80
2021/11/29 12:04:14;;;;;;;2.33;1.40;;;;;;;;;;5065972;28;20033;-79
2021/11/29 12:06:42;;;;;;;1.42;1.10;;;;;;;;;;5048151;28;20036;-81
2021/11/29 12:09:11;;;;;;;2.35;1.50;;;;;;;;;;5048721;28;20068;-80
2021/11/29 12:11:45;;;;;;;2.45;1.38;;;;;;;;;;5066097;28;20029;-81
2021/11/29 12:14:11;;;;;;;3.67;1.40;;;;;;;;;;5047399;28;20029;-80
2021/11/29 12:16:37;;;;;;;2.38;1.30;;;;;;;;;;5065019;28;20051;-81
2021/11/29 12:19:04;;;;;;;2.50;1.30;;;;;;;;;;5064500;28;20021;-82
2021/11/29 12:21:37;;;;;;;2.97;1.10;;;;;;;;;;5064559;28;20027;-80
2021/11/29 12:24:11;;;;;;;2.15;1.10;;;;;;;;;;5046506;28;20029;-82
2021/11/29 12:26:43;;;;;;;1.65;1.08;;;;;;;;;;5046739;28;20056;-80
2021/11/29 12:29:28;;;;;;;1.60;1.20;;;;;;;;;;5047565;28;20147;-83
2021/11/29 12:32:03;;;;;;;2.13;1.25;;;;;;;;;;5051168;28;20072;-77
2021/11/29 12:34:44;;;;;;;2.95;1.33;;;;;;;;;;5065578;28;20340;-80
2021/11/29 12:37:17;;;;;;;1.60;1.10;;;;;;;;;;5046825;28;20060;-81
2021/11/29 12:39:48;;;;;;;3.05;1.50;;;;;;;;;;5065286;28;20120;-80
2021/11/29 12:42:23;;;;;;;2.22;1.20;;;;;;;;;;5047356;28;20029;-81
2021/11/29 12:45:05;;;;;;;1.98;1.27;;;;;;;;;;5047116;28;20029;-80
2021/11/29 12:47:50;;;;;;;2.00;1.20;;;;;;;;;;5047069;28;20029;-82
2021/11/29 12:50:49;;;;;;;2.30;1.50;;;;;;;;;;5046859;28;20056;-80
2021/11/29 12:53:30;;;;;;;2.65;1.33;;;;;;;;;;5064719;28;20037;-81
2021/11/29 12:56:18;;;;;;;3.63;1.63;;;;;;;;;;5046290;28;20021;-79
2021/11/29 12:59:00;;;;;;;2.53;1.38;;;;;;;;;;5046659;28;20025;-83
2021/11/29 13:01:36;;;;;;;3.10;1.50;;;;;;;;;;5064002;28;20021;-79
2021/11/29 13:04:02;;;;;;;1.80;1.30;;;;;;;;;;5046465;28;20044;-80
2021/11/29 13:06:28;;;;;;;4.22;1.40;;;;;;;;;;5046822;28;20025;-79
2021/11/29 13:08:59;;;;;;;2.35;1.48;;;;;;;;;;5065427;28;20039;-79
2021/11/29 13:11:33;;;;;;;3.10;1.55;;;;;;;;;;5045246;28;20036;-81
2021/11/29 13:14:01;;;;;;;;;;;;;;;;;;5047739;28;20123;-81
2021/11/29 13:16:27;;;;;;;5.15;2.28;;;;;;;;;;5064938;28;19909;-78
2021/11/29 13:18:58;;;;;;;3.45;1.77;;;;;;;;;;5064801;28;20032;-79
2021/11/29 13:21:23;;;;;;;4.00;1.67;;;;;;;;;;5065114;28;20025;-78
2021/11/29 13:24:12;;;;;;;3.28;1.80;;;;;;;;;;5047020;28;20032;-77
2021/11/29 13:26:51;;;;;;;4.47;2.00;;;;;;;;;;5046999;28;20055;-80
2021/11/29 13:29:23;;;;;;;3.08;1.45;;;;;;;;;;5047264;28;20414;-80
2021/11/29 13:31:52;;;;;;;2.28;1.30;;;;;;;;;;5064894;28;20036;-81
2021/11/29 13:34:27;;;;;;;4.97;1.77;;;;;;;;;;5046860;28;20029;-78
2021/11/29 13:36:53;;;;;;;2.63;1.50;;;;;;;;;;5046248;28;20389;-81
2021/11/29 13:39:23;;;;;;;3.70;1.50;;;;;;;;;;5064193;28;20036;-81
2021/11/29 13:42:09;;;;;;;1.95;0.93;;;;;;;;;;5064015;28;20036;-81
2021/11/29 13:44:36;;;;;;;1.85;1.30;;;;;;;;;;5064290;28;20032;-82
2021/11/29 13:47:09;;;;;;;4.30;1.60;;;;;;;;;;5063451;28;20101;-81
2021/11/29 13:49:40;;;;;;;2.25;1.20;;;;;;;;;;5046444;28;20124;-82
2021/11/29 13:52:11;;;;;;;1.85;1.23;;;;;;;;;;5064532;28;20088;-82
2021/11/29 13:54:37;;;;;;;2.17;1.30;;;;;;;;;;5046600;28;20120;-83
2021/11/29 13:57:04;;;;;;;2.67;1.27;;;;;;;;;;5064892;28;20111;-80
2021/11/29 13:59:31;;;;;;;2.08;1.20;;;;;;;;;;5045899;28;20190;-81
2021/11/29 14:02:08;;;;;;;2.20;1.10;;;;;;;;;;5046490;28;20056;-81
2021/11/29 14:04:33;;;;;;;2.65;1.10;;;;;;;;;;5046660;28;20029;-81
2021/11/29 14:07:09;;;;;;;3.13;1.40;;;;;;;;;;5045992;28;20029;-81
2021/11/29 14:09:38;;;;;;;1.05;0.93;;;;;;;;;;5046436;28;20029;-81
2021/11/29 14:12:04;;;;;;;1.73;1.10;;;;;;;;;;5063948;28;20457;-81
2021/11/29 14:14:29;;;;;;;2.95;1.40;;;;;;;;;;5064360;28;20032;-80
2021/11/29 14:16:56;;;;;;;3.88;1.27;;;;;;;;;;5064080;28;20052;-78
2021/11/29 14:19:24;;;;;;;2.15;1.42;;;;;;;;;;5064260;28;20375;-81
2021/11/29 14:21:56;;;;;;;2.63;1.30;;;;;;;;;;5046242;28;20040;-80
2021/11/29 14:24:27;;;;;;;2.47;1.40;;;;;;;;;;5064104;28;20048;-80
2021/11/29 14:27:03;;;;;;;3.60;1.55;;;;;;;;;;5045572;28;20474;-83
2021/11/29 14:29:32;;;;;;;2.88;1.45;;;;;;;;;;5045509;28;20044;-80
2021/11/29 14:32:10;;;;;;;2.80;1.38;;;;;;;;;;5063603;28;20044;-80
2021/11/29 14:34:41;;;;;;;3.33;1.73;;;;;;;;;;5045768;28;20382;-82
2021/11/29 14:37:17;;;;;;;2.25;1.48;;;;;;;;;;5046115;28;20116;-83
2021/11/29 14:39:58;;;;;;;2.53;1.50;;;;;;;;;;5063570;28;20036;-79
2021/11/29 14:42:25;;;;;;;2.90;1.40;;;;;;;;;;5045685;28;20032;-78
2021/11/29 14:44:59;;;;;;;3.35;1.40;;;;;;;;;;5045123;28;20041;-82
2021/11/29 14:47:28;;;;;;;2.00;1.30;;;;;;;;;;5045474;28;20025;-82